Accueil
METAR-TAF:

METAR-TAF

Aéroports :

Norwich, Angleterre

Aéroport international de Norwich

latitude: 52-38N, longitude: 001-18E, altitude: 14 m

Observation

Le bulletin a été fait il y a 14 minutes, à 00:20 UTC
Vent 9 kt de est
Température 1°C
Humidité 80%
Pression 1022 hPa
Visibilité 10 km ou plus

METAR: EGSH 240020Z AUTO 10009KT 9999 BKN025/// 01/M02 Q1022

Heure: 00:34 (00:34 UTC)

Prévision

Le bulletin a été fait il y a 4 heures et 36 minutes, à 19:58 UTC
Prévision valable du 23 à 21 UTC au 23 à 24 UTC
Vent 8 kt de est
Visibilité 10 km ou plus
Nuages épars à une hauteur de 2500 ft

TAF: EGSH 231958Z 2321/2324 09008KT 9999 SCT025

Observations et prévisions météorologiques de plus de 4000 aéroports (messages METAR et TAF).

Les stations disponibles sont représentées par des disques jaunes et rouges sur la carte.

Passer la souris dessus pour voir le nom de la station.

Cliquer dessus pour voir les observations et prévisions météorologiques.

Pour changer de carte: cliquez sur les boutons verts avec une croix noire pour zoomer, sur le bouton vert avec un tiret pour effectuer un zoom arrière, ou sur les flèches vertes pour les cartes adjacentes.


METAR-TAF: